KIRK

Details ICAO KIRK (IRK)
Name KIRKSVILLE RGNL
Region United States
Timezone America/Chicago (UTC-6.0)
Plans Departing 2
Arriving 0
Stats Elevation 966 ft / 294 m (AMSL)
Location 40.095137° -92.545961°
Runways 2
Magnetic Variation 0.099° E
Sunrise 2017-12-13 13:25:22 UTC / 2017-12-13 07:25:22 Local
Sunset 2017-12-13 22:46:28 UTC / 2017-12-13 16:46:28 Local
Advertisement - Login to hide

Runways

ID Width Length Bearing (true) Bearing (mag) Surface Threshold Offset Overrun Length
09 100 ft / 30 m 1,390 ft / 424 m 90.68° 90.58° Dirt 0 ft / 0 m 0 ft / 0 m
18 100 ft / 30 m 6,015 ft / 1,833 m 180.48° 180.38° Concrete 0 ft / 0 m 0 ft / 0 m
27 100 ft / 30 m 1,390 ft / 424 m 270.68° 270.58° Dirt 0 ft / 0 m 0 ft / 0 m
36 100 ft / 30 m 6,015 ft / 1,833 m 0.48° 0.38° Concrete 0 ft / 0 m 0 ft / 0 m

Map

Weather


0- 5 10 15 20 25 30 35+ Temperature / ° C

Clouds and Precipitation
Forecast for 2017-12-14 00:00 UTC. Updated 2 hours ago

Ground ~20,000 ft ~40,000 ft Winds

METAR

KIRK 132355Z AUTO 32011G20KT 10SM OVC041 06/01 A2977 RMK AO2 SLP090 T00560011 10117 20056 51040

TAF

Not found

Frequencies

Recorded 121.12 MHz ASOS
Unicom 122.80 MHz CTAF/UNICOM
Warning: Do not use this data for real-world aviation or navigation. No guarantee of current accuracy is given.